createdAt,value
2016-08-06T00:00:50.021Z,16.78
2016-08-06T00:01:50.018Z,16.75
2016-08-06T00:02:50.013Z,16.68
2016-08-06T00:03:50.018Z,16.56
2016-08-06T00:04:50.013Z,16.56
2016-08-06T00:05:50.015Z,16.5
2016-08-06T00:06:50.006Z,16.52
2016-08-06T00:07:50.012Z,16.48
2016-08-06T00:08:50.007Z,16.45
2016-08-06T00:09:50.001Z,16.38
2016-08-06T00:10:50.004Z,16.28
2016-08-06T00:11:50.000Z,16.31
2016-08-06T00:12:50.009Z,16.21
2016-08-06T00:13:50.002Z,16.3
2016-08-06T00:14:49.993Z,16.21
2016-08-06T00:15:49.991Z,16.12
2016-08-06T00:16:49.987Z,16.15
2016-08-06T00:17:51.709Z,16.14
2016-08-06T00:18:50.683Z,16.05
2016-08-06T00:20:49.979Z,16.02
2016-08-06T00:21:49.978Z,16.05
2016-08-06T00:22:49.978Z,15.97
2016-08-06T00:23:49.968Z,16.07
2016-08-06T00:24:49.969Z,16.02
2016-08-06T00:25:51.170Z,16
2016-08-06T00:26:50.019Z,15.92
2016-08-06T00:28:05.282Z,15.86
2016-08-06T00:29:49.959Z,15.8
2016-08-06T00:30:49.959Z,15.84
2016-08-06T00:31:49.951Z,15.84
2016-08-06T00:32:49.951Z,15.82
2016-08-06T00:33:49.948Z,15.75
2016-08-06T00:35:05.212Z,15.68
2016-08-06T00:35:50.992Z,15.67
2016-08-06T00:36:50.337Z,15.67
2016-08-06T00:38:49.936Z,15.6
2016-08-06T00:39:50.340Z,15.65
2016-08-06T00:40:49.934Z,15.56
2016-08-06T00:41:49.936Z,15.57
2016-08-06T00:42:49.938Z,15.56
2016-08-06T00:43:49.927Z,15.54
2016-08-06T00:44:50.619Z,15.47
2016-08-06T00:46:52.789Z,15.54
2016-08-06T00:47:50.397Z,15.46
2016-08-06T00:48:49.910Z,15.44
2016-08-06T00:49:50.322Z,15.41
2016-08-06T00:50:50.044Z,15.5
2016-08-06T00:51:49.906Z,15.5
2016-08-06T00:52:49.898Z,15.41
2016-08-06T00:53:49.896Z,15.41
2016-08-06T00:54:51.417Z,15.41
2016-08-06T00:55:51.443Z,15.38
2016-08-06T00:56:51.142Z,15.41
2016-08-06T00:57:50.747Z,15.35
2016-08-06T00:58:49.964Z,15.38
2016-08-06T00:59:50.176Z,15.28
2016-08-06T01:00:49.960Z,15.38
2016-08-06T01:01:49.873Z,15.34
2016-08-06T01:02:49.871Z,15.28
2016-08-06T01:03:49.884Z,15.28
2016-08-06T01:04:49.873Z,15.2
2016-08-06T01:05:49.871Z,15.23
2016-08-06T01:06:49.863Z,15.23
2016-08-06T01:07:49.853Z,15.2
2016-08-06T01:08:49.863Z,15.2
2016-08-06T01:09:49.856Z,15.14
2016-08-06T01:10:49.866Z,15.21
2016-08-06T01:11:49.851Z,15.16
2016-08-06T01:12:49.848Z,15.2
2016-08-06T01:13:49.847Z,15.19
2016-08-06T01:14:49.835Z,15.23
2016-08-06T01:15:49.841Z,15.2
2016-08-06T01:16:50.034Z,15.21
2016-08-06T01:17:49.832Z,15.21
2016-08-06T01:18:49.830Z,15.21
2016-08-06T01:19:49.835Z,15.23
2016-08-06T01:20:49.821Z,15.17
2016-08-06T01:21:49.817Z,15.2
2016-08-06T01:22:49.813Z,15.21
2016-08-06T01:23:49.808Z,15.17
2016-08-06T01:24:49.813Z,15.2
2016-08-06T01:25:49.810Z,15.19
2016-08-06T01:26:49.797Z,15.17
2016-08-06T01:27:49.805Z,15.13
2016-08-06T01:28:49.800Z,15.16
2016-08-06T01:29:49.794Z,15.17
2016-08-06T01:30:49.791Z,15.16
2016-08-06T01:31:49.786Z,15.16
2016-08-06T01:32:49.786Z,15.13
2016-08-06T01:33:49.780Z,15.11
2016-08-06T01:34:49.774Z,15.16
2016-08-06T01:35:49.771Z,15.13
2016-08-06T01:36:49.777Z,15.01
2016-08-06T01:37:49.770Z,15.06
2016-08-06T01:38:49.774Z,15.13
2016-08-06T01:39:49.771Z,15.06
2016-08-06T01:40:49.762Z,15.14
2016-08-06T01:41:49.759Z,15.01
2016-08-06T01:42:49.751Z,15.09
2016-08-06T01:43:49.999Z,15.11
2016-08-06T01:44:50.165Z,15.1
2016-08-06T01:45:50.199Z,15.07
2016-08-06T01:46:50.012Z,15.16
2016-08-06T01:47:49.743Z,15.17
2016-08-06T01:48:49.736Z,15.13
2016-08-06T01:49:49.734Z,15.13
2016-08-06T01:50:49.733Z,15.2
2016-08-06T01:51:49.733Z,15.17
2016-08-06T01:52:50.628Z,15.17
2016-08-06T01:53:50.175Z,15.2
2016-08-06T01:55:20.200Z,15.25
2016-08-06T01:55:49.715Z,15.31
2016-08-06T01:56:49.716Z,15.34
2016-08-06T01:57:49.858Z,15.34
2016-08-06T01:58:50.167Z,15.31
2016-08-06T01:59:49.802Z,15.36
2016-08-06T02:00:49.700Z,15.39
2016-08-06T02:01:49.697Z,15.39
2016-08-06T02:02:49.791Z,15.39
2016-08-06T02:05:50.770Z,15.54
2016-08-06T02:06:50.551Z,15.43
2016-08-06T02:07:50.384Z,15.54
2016-08-06T02:08:50.225Z,15.6
2016-08-06T02:09:50.155Z,15.54
2016-08-06T02:10:49.668Z,15.53
2016-08-06T02:11:49.670Z,15.64
2016-08-06T02:12:50.646Z,15.65
2016-08-06T02:13:50.718Z,15.71
2016-08-06T02:14:50.899Z,15.65
2016-08-06T02:15:49.656Z,15.68
2016-08-06T02:16:51.088Z,15.78
2016-08-06T02:17:49.721Z,15.84
2016-08-06T02:18:50.103Z,15.78
2016-08-06T02:19:49.688Z,15.8
2016-08-06T02:20:49.638Z,15.75
2016-08-06T02:21:49.642Z,15.71
2016-08-06T02:22:49.641Z,15.76
2016-08-06T02:23:49.633Z,15.76
2016-08-06T02:24:49.630Z,15.74
2016-08-06T02:25:49.620Z,15.83
2016-08-06T02:26:49.627Z,15.87
2016-08-06T02:27:49.624Z,15.76
2016-08-06T02:28:49.619Z,15.87
2016-08-06T02:29:49.616Z,15.76
2016-08-06T02:30:49.608Z,15.75
2016-08-06T02:31:49.610Z,15.74
2016-08-06T02:32:49.619Z,15.76
2016-08-06T02:33:49.606Z,15.75
2016-08-06T02:34:49.599Z,15.71
2016-08-06T02:35:49.608Z,15.68
2016-08-06T02:36:49.603Z,15.6
2016-08-06T02:37:49.592Z,15.65
2016-08-06T02:38:49.597Z,15.65
2016-08-06T02:39:49.592Z,15.56
2016-08-06T02:40:49.585Z,15.62
2016-08-06T02:41:49.582Z,15.62
2016-08-06T02:42:49.584Z,15.51
2016-08-06T02:43:49.578Z,15.54
2016-08-06T02:44:49.573Z,15.39
2016-08-06T02:45:49.574Z,15.43
2016-08-06T02:46:49.563Z,15.46
2016-08-06T02:47:49.566Z,15.46
2016-08-06T02:48:49.560Z,15.38
2016-08-06T02:49:49.560Z,15.31
2016-08-06T02:50:49.556Z,15.38
2016-08-06T02:51:49.550Z,15.36
2016-08-06T02:52:49.546Z,15.29
2016-08-06T02:53:49.555Z,15.31
2016-08-06T02:54:49.540Z,15.21
2016-08-06T02:55:49.538Z,15.23
2016-08-06T02:56:49.544Z,15.19
2016-08-06T02:57:49.545Z,15.16
2016-08-06T02:58:49.543Z,15.19
2016-08-06T02:59:49.531Z,15.1
2016-08-06T03:00:49.539Z,15.07
2016-08-06T03:02:50.123Z,15.1
2016-08-06T03:03:50.275Z,15.07
2016-08-06T03:04:49.667Z,14.94
2016-08-06T03:05:50.012Z,15.02
2016-08-06T03:06:49.512Z,14.98
2016-08-06T03:07:49.613Z,14.94
2016-08-06T03:08:49.510Z,14.91
2016-08-06T03:09:49.506Z,14.92
2016-08-06T03:10:49.506Z,14.83
2016-08-06T03:13:50.338Z,14.88
2016-08-06T03:14:49.533Z,14.84
2016-08-06T03:15:49.487Z,14.84
2016-08-06T03:16:50.029Z,14.78
2016-08-06T03:17:49.475Z,14.73
2016-08-06T03:18:49.477Z,14.75
2016-08-06T03:19:49.475Z,14.75
2016-08-06T03:20:49.465Z,14.8
2016-08-06T03:21:50.982Z,14.69
2016-08-06T03:22:50.468Z,14.64
2016-08-06T03:23:51.039Z,14.64
2016-08-06T03:24:49.828Z,14.55
2016-08-06T03:25:49.453Z,14.55
2016-08-06T03:26:49.447Z,14.6
2016-08-06T03:27:49.443Z,14.54
2016-08-06T03:28:49.446Z,14.54
2016-08-06T03:29:49.442Z,14.55
2016-08-06T03:30:49.440Z,14.51
2016-08-06T03:31:49.753Z,14.58
2016-08-06T03:32:52.197Z,14.43
2016-08-06T03:34:51.091Z,14.47
2016-08-06T03:35:50.428Z,14.37
2016-08-06T03:36:49.418Z,14.4
2016-08-06T03:37:49.613Z,14.35
2016-08-06T03:38:49.413Z,14.33
2016-08-06T03:39:49.409Z,14.36
2016-08-06T03:40:49.404Z,14.24
2016-08-06T03:41:49.412Z,14.32
2016-08-06T03:42:49.401Z,14.27
2016-08-06T03:43:49.390Z,14.28
2016-08-06T03:44:49.393Z,14.28
2016-08-06T03:46:49.387Z,14.24
2016-08-06T03:47:49.376Z,14.21
2016-08-06T03:48:49.373Z,14.24
2016-08-06T03:49:49.377Z,14.21
2016-08-06T03:50:49.363Z,14.2
2016-08-06T03:51:49.367Z,14.2
2016-08-06T03:52:49.360Z,14.17
2016-08-06T03:53:49.374Z,14.17
2016-08-06T03:54:49.359Z,14.12
2016-08-06T03:55:49.348Z,14.12
2016-08-06T03:56:49.349Z,14.17
2016-08-06T03:57:49.341Z,14.14
2016-08-06T03:58:49.335Z,14.09
2016-08-06T03:59:49.342Z,14.07
2016-08-06T04:01:49.330Z,14.06
2016-08-06T04:02:49.374Z,14.1
2016-08-06T04:03:49.314Z,14.09
2016-08-06T04:04:49.322Z,14.1
2016-08-06T04:05:49.316Z,14.03
2016-08-06T04:06:49.322Z,14.02
2016-08-06T04:07:49.310Z,14.04
2016-08-06T04:08:49.299Z,14.07
2016-08-06T04:09:49.305Z,14.02
2016-08-06T04:10:49.297Z,14
2016-08-06T04:11:49.297Z,14.14
2016-08-06T04:12:49.289Z,14.09
2016-08-06T04:13:49.285Z,14.09
2016-08-06T04:14:49.284Z,14.02
2016-08-06T04:15:49.280Z,14.1
2016-08-06T04:16:49.273Z,14.17
2016-08-06T04:17:49.275Z,14.07
2016-08-06T04:18:49.267Z,14.2
2016-08-06T04:19:49.265Z,14.18
2016-08-06T04:20:49.461Z,14.32
2016-08-06T04:21:50.310Z,14.22
2016-08-06T04:22:49.255Z,14.43
2016-08-06T04:23:50.101Z,14.62
2016-08-06T04:24:49.852Z,14.78
2016-08-06T04:25:49.245Z,14.98
2016-08-06T04:26:49.648Z,15.2
2016-08-06T04:27:49.235Z,15.44
2016-08-06T04:28:49.232Z,15.75
2016-08-06T04:29:50.278Z,16.01
2016-08-06T04:30:49.272Z,16.17
2016-08-06T04:32:04.345Z,16.56
2016-08-06T04:32:49.728Z,16.83
2016-08-06T04:33:49.967Z,17.07
2016-08-06T04:34:49.329Z,17.28
2016-08-06T04:35:49.233Z,17.55
2016-08-06T04:36:49.208Z,17.84
2016-08-06T04:37:49.219Z,18.11
2016-08-06T04:38:49.217Z,18.42
2016-08-06T04:39:49.212Z,18.73
2016-08-06T04:40:53.297Z,19.02
2016-08-06T04:41:49.279Z,19.31
2016-08-06T04:42:49.212Z,19.66
2016-08-06T04:43:49.211Z,19.87
2016-08-06T04:44:49.207Z,20.17
2016-08-06T04:45:49.214Z,20.55
2016-08-06T04:46:49.326Z,20.84
2016-08-06T04:47:49.431Z,21.13
2016-08-06T04:48:49.212Z,21.32
2016-08-06T04:49:50.629Z,21.68
2016-08-06T04:50:50.697Z,21.92
2016-08-06T04:51:49.414Z,22.17
2016-08-06T04:52:51.162Z,22.31
2016-08-06T04:53:49.223Z,22.45
2016-08-06T04:54:49.223Z,22.77
2016-08-06T04:55:49.469Z,22.98
2016-08-06T04:56:49.231Z,23.2
2016-08-06T04:57:49.237Z,23.47
2016-08-06T04:58:49.245Z,23.73
2016-08-06T04:59:49.265Z,23.95
2016-08-06T05:00:49.253Z,24.08
2016-08-06T05:01:49.254Z,24.13
2016-08-06T05:02:49.256Z,24.16
2016-08-06T05:03:49.268Z,24.39
2016-08-06T05:04:49.292Z,24.52
2016-08-06T05:05:49.279Z,24.8
2016-08-06T05:06:49.276Z,25.02
2016-08-06T05:07:49.277Z,25.28
2016-08-06T05:08:49.290Z,25.62
2016-08-06T05:09:49.297Z,25.73
2016-08-06T05:10:49.299Z,25.99
2016-08-06T05:11:49.310Z,26.23
2016-08-06T05:12:50.022Z,26.5
2016-08-06T05:13:49.314Z,26.63
2016-08-06T05:14:49.327Z,26.8
2016-08-06T05:15:49.333Z,26.97
2016-08-06T05:16:49.341Z,27.19
2016-08-06T05:17:49.358Z,27.32
2016-08-06T05:18:49.351Z,27.41
2016-08-06T05:19:49.367Z,27.7
2016-08-06T05:20:49.373Z,27.84
2016-08-06T05:21:49.382Z,27.82
2016-08-06T05:22:49.396Z,27.87
2016-08-06T05:23:49.399Z,27.99
2016-08-06T05:24:49.405Z,28.02
2016-08-06T05:25:49.429Z,27.99
2016-08-06T05:26:49.423Z,28.03
2016-08-06T05:27:49.429Z,27.96
2016-08-06T05:28:49.442Z,27.99
2016-08-06T05:29:49.458Z,28.06
2016-08-06T05:30:49.457Z,28.06
2016-08-06T05:31:49.469Z,27.99
2016-08-06T05:32:49.472Z,27.97
2016-08-06T05:33:49.479Z,28.07
2016-08-06T05:34:49.489Z,28.03
2016-08-06T05:35:49.501Z,28.03
2016-08-06T05:36:49.510Z,27.84
2016-08-06T05:37:49.525Z,27.84
2016-08-06T05:38:50.281Z,27.79
2016-08-06T05:39:49.643Z,27.62
2016-08-06T05:41:04.468Z,27.18
2016-08-06T05:42:49.557Z,26.73
2016-08-06T05:43:49.567Z,26.48
2016-08-06T05:44:49.577Z,26.43
2016-08-06T05:45:49.585Z,26.02
2016-08-06T05:46:49.597Z,25.83
2016-08-06T05:47:50.306Z,25.61
2016-08-06T05:48:50.216Z,25.51
2016-08-06T05:49:50.328Z,25.27
2016-08-06T05:51:49.645Z,24.88
2016-08-06T05:52:49.643Z,24.61
2016-08-06T05:53:49.648Z,24.43
2016-08-06T05:54:49.664Z,24.34
2016-08-06T05:55:49.658Z,24.13
2016-08-06T05:56:49.664Z,24.15
2016-08-06T05:57:49.666Z,23.93
2016-08-06T05:58:50.209Z,23.9
2016-08-06T05:59:50.908Z,23.79
2016-08-06T06:00:50.003Z,23.72
2016-08-06T06:01:49.691Z,23.5
2016-08-06T06:02:50.085Z,23.32
2016-08-06T06:03:50.260Z,23.16
2016-08-06T06:04:49.709Z,22.94
2016-08-06T06:05:49.720Z,22.88
2016-08-06T06:06:49.717Z,22.83
2016-08-06T06:08:50.584Z,22.7
2016-08-06T06:09:51.589Z,22.68
2016-08-06T06:10:50.959Z,22.85
2016-08-06T06:11:49.736Z,22.98
2016-08-06T06:12:49.897Z,23.22
2016-08-06T06:13:49.763Z,23.8
2016-08-06T06:14:49.753Z,24.1
2016-08-06T06:15:49.758Z,24.2
2016-08-06T06:16:49.768Z,24.3
2016-08-06T06:17:49.775Z,24.31
2016-08-06T06:18:49.774Z,24.28
2016-08-06T06:19:49.777Z,24.34
2016-08-06T06:20:49.786Z,24.2
2016-08-06T06:21:49.794Z,24.21
2016-08-06T06:22:49.805Z,24.06
2016-08-06T06:23:49.796Z,23.95
2016-08-06T06:24:49.813Z,23.85
2016-08-06T06:25:49.820Z,23.63
2016-08-06T06:26:49.829Z,23.57
2016-08-06T06:27:49.818Z,23.61
2016-08-06T06:28:49.834Z,23.76
2016-08-06T06:29:49.834Z,24.09
2016-08-06T06:30:49.835Z,24.45
2016-08-06T06:31:50.542Z,24.83
2016-08-06T06:32:49.848Z,25.08
2016-08-06T06:33:49.857Z,25.3
2016-08-06T06:34:49.868Z,25.72
2016-08-06T06:35:49.884Z,26.12
2016-08-06T06:36:49.877Z,26.66
2016-08-06T06:37:49.890Z,27.03
2016-08-06T06:38:49.894Z,27.44
2016-08-06T06:39:49.903Z,27.7
2016-08-06T06:40:49.911Z,27.9
2016-08-06T06:41:49.928Z,28.04
2016-08-06T06:42:49.940Z,28.25
2016-08-06T06:43:49.939Z,28.39
2016-08-06T06:44:49.955Z,28.29
2016-08-06T06:45:49.959Z,28.22
2016-08-06T06:46:49.975Z,28.34
2016-08-06T06:47:49.972Z,28.52
2016-08-06T06:48:49.993Z,28.56
2016-08-06T06:49:49.992Z,28.77
2016-08-06T06:50:50.006Z,28.92
2016-08-06T06:51:50.015Z,28.92
2016-08-06T06:52:50.027Z,28.88
2016-08-06T06:53:50.050Z,28.89
2016-08-06T06:54:50.053Z,29.16
2016-08-06T06:55:50.061Z,29.36
2016-08-06T06:56:51.124Z,29.37
2016-08-06T06:58:05.301Z,29.3
2016-08-06T06:58:50.688Z,29.24
2016-08-06T06:59:50.956Z,29.26
2016-08-06T07:00:50.125Z,29.45
2016-08-06T07:01:50.636Z,29.71
2016-08-06T07:02:50.589Z,29.94
2016-08-06T07:03:50.145Z,30.04
2016-08-06T07:04:50.154Z,30.46
2016-08-06T07:05:50.572Z,30.46
2016-08-06T07:06:51.135Z,30.47
2016-08-06T07:07:50.945Z,30.43
2016-08-06T07:08:50.206Z,30.67
2016-08-06T07:10:05.141Z,30.7
2016-08-06T07:10:50.435Z,30.73
2016-08-06T07:11:50.946Z,30.7
2016-08-06T07:12:50.502Z,30.76
2016-08-06T07:13:50.269Z,30.83
2016-08-06T07:14:50.969Z,31.04
2016-08-06T07:15:50.293Z,31.31
2016-08-06T07:17:50.691Z,31.93
2016-08-06T07:18:52.221Z,32.18
2016-08-06T07:19:51.925Z,32.15
2016-08-06T07:20:50.505Z,32.26
2016-08-06T07:21:51.607Z,32.57
2016-08-06T07:22:50.390Z,32.88
2016-08-06T07:23:50.677Z,33.06
2016-08-06T07:24:50.410Z,33.11
2016-08-06T07:25:51.831Z,33.01
2016-08-06T07:26:52.104Z,32.79
2016-08-06T07:27:50.495Z,32.69
2016-08-06T07:28:50.791Z,32.51
2016-08-06T07:29:50.476Z,32.33
2016-08-06T07:30:51.338Z,32.01
2016-08-06T07:32:50.521Z,31.57
2016-08-06T07:33:50.533Z,31.36
2016-08-06T07:34:50.545Z,31.26
2016-08-06T07:35:50.563Z,31.12
2016-08-06T07:36:50.565Z,30.97
2016-08-06T07:37:50.585Z,30.95
2016-08-06T07:38:50.598Z,30.94
2016-08-06T07:39:50.605Z,30.76
2016-08-06T07:40:50.616Z,30.73
2016-08-06T07:41:50.630Z,30.62
2016-08-06T07:42:50.637Z,30.7
2016-08-06T07:43:50.646Z,30.53
2016-08-06T07:44:50.658Z,30.47
2016-08-06T07:45:50.675Z,30.49
2016-08-06T07:47:50.697Z,30.16
2016-08-06T07:48:50.707Z,29.94
2016-08-06T07:49:50.719Z,29.67
2016-08-06T07:50:50.729Z,29.49
2016-08-06T07:51:50.747Z,29.3
2016-08-06T07:52:50.749Z,29.24
2016-08-06T07:53:50.757Z,29.3
2016-08-06T07:54:50.767Z,29.24
2016-08-06T07:55:50.776Z,29.15
2016-08-06T07:56:50.796Z,29.04
2016-08-06T07:57:50.800Z,28.85
2016-08-06T07:58:50.806Z,28.52
2016-08-06T07:59:51.519Z,28.44
2016-08-06T08:00:50.832Z,28.49
2016-08-06T08:01:50.842Z,28.44
2016-08-06T08:02:50.852Z,28.18
2016-08-06T08:03:50.859Z,28.21
2016-08-06T08:04:50.867Z,28.37
2016-08-06T08:05:50.884Z,28.64
2016-08-06T08:06:50.890Z,28.93
2016-08-06T08:07:50.902Z,28.9
2016-08-06T08:08:50.904Z,28.9
2016-08-06T08:09:50.917Z,29.08
2016-08-06T08:10:50.932Z,29.18
2016-08-06T08:11:50.940Z,29.3
2016-08-06T08:12:50.954Z,29.41
2016-08-06T08:13:50.955Z,29.39
2016-08-06T08:15:51.733Z,29.09
2016-08-06T08:17:50.997Z,29.08
2016-08-06T08:18:51.719Z,28.86
2016-08-06T08:19:51.716Z,28.92
2016-08-06T08:20:51.032Z,28.73
2016-08-06T08:21:51.037Z,28.71
2016-08-06T08:22:51.051Z,28.8
2016-08-06T08:23:51.535Z,28.78
2016-08-06T08:24:51.713Z,28.81
2016-08-06T08:26:06.555Z,28.71
2016-08-06T08:26:51.746Z,28.54
2016-08-06T08:27:52.502Z,28.49
2016-08-06T08:28:51.913Z,28.43
2016-08-06T08:29:51.123Z,28.37
2016-08-06T08:30:51.126Z,28.4
2016-08-06T08:31:51.128Z,28.27
2016-08-06T08:32:51.144Z,28.12
2016-08-06T08:33:51.152Z,28.04
2016-08-06T08:34:52.679Z,28.06
2016-08-06T08:35:52.198Z,28.11
2016-08-06T08:36:51.181Z,28.12
2016-08-06T08:37:51.807Z,28.09
2016-08-06T08:38:51.266Z,28.11
2016-08-06T08:39:51.205Z,28.09
2016-08-06T08:40:51.411Z,28.02
2016-08-06T08:41:51.576Z,27.97
2016-08-06T08:42:51.229Z,27.97
2016-08-06T08:43:51.238Z,27.93
2016-08-06T08:44:52.210Z,27.94
2016-08-06T08:45:51.679Z,27.78
2016-08-06T08:46:51.261Z,27.75
2016-08-06T08:47:51.275Z,27.72
2016-08-06T08:48:51.290Z,27.75
2016-08-06T08:49:51.913Z,27.7
2016-08-06T08:50:51.301Z,27.57
2016-08-06T08:51:51.308Z,27.57
2016-08-06T08:52:51.309Z,27.54
2016-08-06T08:53:51.327Z,27.43
2016-08-06T08:54:51.331Z,27.28
2016-08-06T08:55:51.338Z,27.18
2016-08-06T08:56:51.341Z,27.09
2016-08-06T08:57:51.353Z,27.17
2016-08-06T08:58:51.359Z,27.18
2016-08-06T08:59:51.361Z,27.17
2016-08-06T09:00:51.377Z,27.18
2016-08-06T09:01:51.386Z,27.19
2016-08-06T09:02:51.494Z,27.31
2016-08-06T09:03:51.408Z,27.41
2016-08-06T09:04:51.410Z,27.49
2016-08-06T09:05:51.416Z,27.7
2016-08-06T09:06:51.427Z,27.67
2016-08-06T09:07:51.423Z,27.85
2016-08-06T09:08:51.432Z,27.93
2016-08-06T09:09:51.441Z,27.97
2016-08-06T09:10:51.452Z,28
2016-08-06T09:11:51.457Z,27.96
2016-08-06T09:12:51.469Z,28.03
2016-08-06T09:13:51.473Z,27.87
2016-08-06T09:14:51.479Z,27.87
2016-08-06T09:15:51.495Z,27.87
2016-08-06T09:16:51.500Z,27.77
2016-08-06T09:17:52.237Z,27.6
2016-08-06T09:18:51.515Z,27.59
2016-08-06T09:19:51.527Z,27.47
2016-08-06T09:20:51.527Z,27.29
2016-08-06T09:21:51.534Z,27.34
2016-08-06T09:22:51.542Z,27.31
2016-08-06T09:23:51.551Z,27.31
2016-08-06T09:24:51.570Z,27.46
2016-08-06T09:25:51.564Z,27.63
2016-08-06T09:26:51.577Z,27.77
2016-08-06T09:27:51.586Z,27.78
2016-08-06T09:28:51.582Z,27.77
2016-08-06T09:29:51.606Z,27.97
2016-08-06T09:30:51.601Z,28.04
2016-08-06T09:31:51.610Z,28.11
2016-08-06T09:32:51.616Z,27.97
2016-08-06T09:34:53.534Z,28
2016-08-06T09:35:52.241Z,27.99
2016-08-06T09:36:51.805Z,28.04
2016-08-06T09:37:51.655Z,28.09
2016-08-06T09:38:52.110Z,28.04
2016-08-06T09:39:51.665Z,28.17
2016-08-06T09:40:51.685Z,28.12
2016-08-06T09:41:51.688Z,28.12
2016-08-06T09:42:52.753Z,28.07
2016-08-06T09:44:51.759Z,28.22
2016-08-06T09:46:06.635Z,28.21
2016-08-06T09:46:51.732Z,28.12
2016-08-06T09:47:51.734Z,28.21
2016-08-06T09:48:51.936Z,28.19
2016-08-06T09:49:51.751Z,28.24
2016-08-06T09:50:51.762Z,28.27
2016-08-06T09:51:51.759Z,28.15
2016-08-06T09:52:51.769Z,28.07
2016-08-06T09:53:52.121Z,27.97
2016-08-06T09:54:52.055Z,28.04
2016-08-06T09:55:51.794Z,28.12
2016-08-06T09:56:52.142Z,28.09
2016-08-06T09:57:52.233Z,28.09
2016-08-06T09:58:51.843Z,27.97
2016-08-06T09:59:51.831Z,27.87
2016-08-06T10:00:51.828Z,27.78
2016-08-06T10:01:51.848Z,27.81
2016-08-06T10:03:54.382Z,27.67
2016-08-06T10:04:52.981Z,27.82
2016-08-06T10:05:51.868Z,27.87
2016-08-06T10:06:52.241Z,27.88
2016-08-06T10:07:52.086Z,27.94
2016-08-06T10:08:51.895Z,28.09
2016-08-06T10:09:51.908Z,28.03
2016-08-06T10:10:51.908Z,28.09
2016-08-06T10:11:51.911Z,28.03
2016-08-06T10:12:51.936Z,28.12
2016-08-06T10:13:51.929Z,28.21
2016-08-06T10:14:51.944Z,28.12
2016-08-06T10:15:51.943Z,28.06
2016-08-06T10:16:51.960Z,28.14
2016-08-06T10:17:51.961Z,28.24
2016-08-06T10:18:51.969Z,28.3
2016-08-06T10:19:51.976Z,28.29
2016-08-06T10:20:51.987Z,28.19
2016-08-06T10:21:52.003Z,28.02
2016-08-06T10:22:52.000Z,28.04
2016-08-06T10:23:52.004Z,27.88
2016-08-06T10:24:52.017Z,27.84
2016-08-06T10:25:52.025Z,27.74
2016-08-06T10:26:52.028Z,27.77
2016-08-06T10:27:52.040Z,27.75
2016-08-06T10:28:52.048Z,27.77
2016-08-06T10:29:52.054Z,27.66
2016-08-06T10:30:52.064Z,27.77
2016-08-06T10:31:52.068Z,27.75
2016-08-06T10:32:52.078Z,27.77
2016-08-06T10:33:52.800Z,27.75
2016-08-06T10:34:52.096Z,27.9
2016-08-06T10:35:52.104Z,27.81
2016-08-06T10:36:52.112Z,27.93
2016-08-06T10:37:52.114Z,27.88
2016-08-06T10:38:52.127Z,27.88
2016-08-06T10:39:52.127Z,27.84
2016-08-06T10:40:52.846Z,27.7
2016-08-06T10:41:52.141Z,27.75
2016-08-06T10:42:52.151Z,27.79
2016-08-06T10:43:52.162Z,27.75
2016-08-06T10:44:52.175Z,27.84
2016-08-06T10:45:52.193Z,27.84
2016-08-06T10:46:52.183Z,27.85
2016-08-06T10:47:52.193Z,27.81
2016-08-06T10:48:52.201Z,27.78
2016-08-06T10:49:52.201Z,27.79
2016-08-06T10:50:52.224Z,27.82
2016-08-06T10:53:23.016Z,28.15
2016-08-06T10:54:07.751Z,28.22
2016-08-06T10:54:52.246Z,28.41
2016-08-06T10:55:52.945Z,28.4
2016-08-06T10:56:52.958Z,28.59
2016-08-06T10:57:52.268Z,28.61
2016-08-06T10:58:52.277Z,28.49
2016-08-06T10:59:52.286Z,28.4
2016-08-06T11:00:52.742Z,28.48
2016-08-06T11:02:52.956Z,28.52
2016-08-06T11:03:52.317Z,28.52
2016-08-06T11:04:52.922Z,28.49
2016-08-06T11:05:52.331Z,28.49
2016-08-06T11:06:52.986Z,28.4
2016-08-06T11:07:52.346Z,28.37
2016-08-06T11:08:52.348Z,28.34
2016-08-06T11:09:52.356Z,28.31
2016-08-06T11:10:52.368Z,28.3
2016-08-06T11:12:52.609Z,28.48
2016-08-06T11:13:52.984Z,28.46
2016-08-06T11:14:53.108Z,28.44
2016-08-06T11:15:52.409Z,28.41
2016-08-06T11:16:52.414Z,28.41
2016-08-06T11:18:52.430Z,28.49
2016-08-06T11:19:52.438Z,28.54
2016-08-06T11:20:53.727Z,28.64
2016-08-06T11:22:52.454Z,28.68
2016-08-06T11:23:53.382Z,28.54
2016-08-06T11:24:52.482Z,28.46
2016-08-06T11:25:52.485Z,28.36
2016-08-06T11:26:52.489Z,28.41
2016-08-06T11:27:52.504Z,28.37
2016-08-06T11:28:52.511Z,28.31
2016-08-06T11:29:52.516Z,28.15
2016-08-06T11:30:52.519Z,28.11
2016-08-06T11:31:52.541Z,28.03
2016-08-06T11:33:53.242Z,27.82
2016-08-06T11:34:52.558Z,27.81
2016-08-06T11:35:52.563Z,27.74
2016-08-06T11:36:52.572Z,27.82
2016-08-06T11:37:52.570Z,27.75
2016-08-06T11:38:53.282Z,27.77
2016-08-06T11:39:52.590Z,27.78
2016-08-06T11:40:52.591Z,27.77
2016-08-06T11:41:52.600Z,27.7
2016-08-06T11:42:52.607Z,27.66
2016-08-06T11:43:52.619Z,27.7
2016-08-06T11:44:52.620Z,27.72
2016-08-06T11:45:52.634Z,27.74
2016-08-06T11:46:52.639Z,27.74
2016-08-06T11:48:52.656Z,27.77
2016-08-06T11:49:52.658Z,27.62
2016-08-06T11:50:52.675Z,27.57
2016-08-06T11:51:52.671Z,27.5
2016-08-06T11:52:52.684Z,27.31
2016-08-06T11:53:52.692Z,27.12
2016-08-06T11:54:52.699Z,27.03
2016-08-06T11:55:52.703Z,27.13
2016-08-06T11:56:52.705Z,27.13
2016-08-06T11:57:52.734Z,27.32
2016-08-06T11:58:52.729Z,27.37
2016-08-06T11:59:52.732Z,27.49
2016-08-06T12:00:52.740Z,27.47
2016-08-06T12:01:52.745Z,27.51
2016-08-06T12:02:52.761Z,27.57
2016-08-06T12:03:52.763Z,27.65
2016-08-06T12:04:52.764Z,27.67
2016-08-06T12:05:52.783Z,27.74
2016-08-06T12:06:52.793Z,27.77
2016-08-06T12:07:52.798Z,27.78
2016-08-06T12:08:52.801Z,27.93
2016-08-06T12:09:53.560Z,27.96
2016-08-06T12:10:53.913Z,27.99
2016-08-06T12:11:52.827Z,27.99
2016-08-06T12:13:07.741Z,28.02
2016-08-06T12:13:53.228Z,27.93
2016-08-06T12:14:53.240Z,27.88
2016-08-06T12:15:53.009Z,27.96
2016-08-06T12:16:52.848Z,27.94
2016-08-06T12:17:52.866Z,28.02
2016-08-06T12:19:07.791Z,28.02
2016-08-06T12:19:53.936Z,28.02
2016-08-06T12:22:07.811Z,27.77
2016-08-06T12:22:53.449Z,27.59
2016-08-06T12:23:52.910Z,27.43
2016-08-06T12:24:52.907Z,27.18
2016-08-06T12:25:53.267Z,27.13
2016-08-06T12:26:52.926Z,27
2016-08-06T12:27:52.929Z,26.91
2016-08-06T12:28:52.933Z,26.81
2016-08-06T12:30:54.470Z,26.87
2016-08-06T12:31:54.083Z,26.99
2016-08-06T12:32:53.545Z,27.06
2016-08-06T12:33:54.781Z,27.09
2016-08-06T12:34:52.976Z,27.13
2016-08-06T12:35:52.989Z,27.28
2016-08-06T12:36:52.990Z,27.27
2016-08-06T12:37:52.993Z,27.5
2016-08-06T12:38:53.425Z,27.66
2016-08-06T12:39:55.056Z,27.66
2016-08-06T12:40:53.104Z,27.81
2016-08-06T12:41:53.111Z,27.9
2016-08-06T12:42:54.754Z,27.88
2016-08-06T12:43:53.034Z,27.77
2016-08-06T12:44:53.043Z,27.67
2016-08-06T12:45:53.053Z,27.7
2016-08-06T12:46:53.072Z,27.69
2016-08-06T12:47:53.061Z,27.75
2016-08-06T12:48:53.765Z,27.7
2016-08-06T12:49:53.081Z,27.84
2016-08-06T12:50:53.084Z,27.87
2016-08-06T12:51:53.084Z,27.97
2016-08-06T12:52:53.097Z,28.06
2016-08-06T12:53:53.107Z,28.02
2016-08-06T12:54:53.108Z,28.06
2016-08-06T12:55:53.117Z,28.14
2016-08-06T12:56:53.124Z,28.11
2016-08-06T12:57:53.134Z,28.12
2016-08-06T12:58:53.134Z,28.09
2016-08-06T12:59:53.144Z,28.07
2016-08-06T13:00:53.155Z,28.09
2016-08-06T13:01:53.165Z,27.99
2016-08-06T13:02:53.369Z,27.84
2016-08-06T13:03:53.179Z,27.82
2016-08-06T13:04:53.183Z,27.72
2016-08-06T13:05:53.182Z,27.66
2016-08-06T13:06:53.195Z,27.59
2016-08-06T13:07:53.200Z,27.46
2016-08-06T13:08:53.209Z,27.36
2016-08-06T13:09:53.215Z,27.32
2016-08-06T13:10:53.226Z,27.19
2016-08-06T13:11:53.227Z,27.06
2016-08-06T13:12:53.239Z,27.14
2016-08-06T13:13:53.241Z,27.13
2016-08-06T13:14:53.242Z,27.03
2016-08-06T13:15:53.264Z,27
2016-08-06T13:16:53.265Z,26.92
2016-08-06T13:17:53.267Z,26.87
2016-08-06T13:18:53.274Z,26.81
2016-08-06T13:19:53.287Z,26.63
2016-08-06T13:20:53.284Z,26.52
2016-08-06T13:21:53.292Z,26.35
2016-08-06T13:22:53.305Z,26.18
2016-08-06T13:23:54.074Z,25.95
2016-08-06T13:24:53.308Z,25.9
2016-08-06T13:25:53.315Z,25.76
2016-08-06T13:26:53.325Z,25.73
2016-08-06T13:28:08.249Z,25.55